sensor_id;sensor_type;location;lat;lon;timestamp;P1;durP1;ratioP1;P2;durP2;ratioP2
7747;SDS011;3918;42.564;23.164;2022-09-12T05:01:06;10.02;;;8.68;;
7747;SDS011;3918;42.564;23.164;2022-09-12T05:03:33;8.55;;;7.47;;
7747;SDS011;3918;42.564;23.164;2022-09-12T05:06:03;10.35;;;7.97;;
7747;SDS011;3918;42.564;23.164;2022-09-12T05:08:31;11.45;;;8.75;;
7747;SDS011;3918;42.564;23.164;2022-09-12T05:11:00;8.40;;;7.60;;
7747;SDS011;3918;42.564;23.164;2022-09-12T05:13:29;9.88;;;8.32;;
7747;SDS011;3918;42.564;23.164;2022-09-12T05:15:56;9.38;;;8.23;;
7747;SDS011;3918;42.564;23.164;2022-09-12T05:18:25;13.02;;;8.07;;
7747;SDS011;3918;42.564;23.164;2022-09-12T05:20:53;9.60;;;7.43;;
7747;SDS011;3918;42.564;23.164;2022-09-12T05:23:20;9.20;;;7.50;;
7747;SDS011;3918;42.564;23.164;2022-09-12T05:25:49;8.80;;;7.47;;
7747;SDS011;3918;42.564;23.164;2022-09-12T05:28:16;10.65;;;7.55;;
7747;SDS011;3918;42.564;23.164;2022-09-12T05:30:43;9.25;;;6.93;;
7747;SDS011;3918;42.564;23.164;2022-09-12T05:33:10;10.80;;;6.70;;
7747;SDS011;3918;42.564;23.164;2022-09-12T05:35:39;9.45;;;6.60;;
7747;SDS011;3918;42.564;23.164;2022-09-12T05:38:06;15.38;;;7.18;;
7747;SDS011;3918;42.564;23.164;2022-09-12T05:40:33;6.15;;;5.53;;
7747;SDS011;3918;42.564;23.164;2022-09-12T05:43:00;6.28;;;5.68;;
7747;SDS011;3918;42.564;23.164;2022-09-12T05:45:26;7.82;;;5.47;;
7747;SDS011;3918;42.564;23.164;2022-09-12T05:47:54;8.00;;;6.47;;
7747;SDS011;3918;42.564;23.164;2022-09-12T05:50:21;10.38;;;6.60;;
7747;SDS011;3918;42.564;23.164;2022-09-12T05:52:49;6.07;;;5.57;;
7747;SDS011;3918;42.564;23.164;2022-09-12T05:55:16;7.00;;;6.30;;
7747;SDS011;3918;42.564;23.164;2022-09-12T05:57:43;6.45;;;5.53;;
7747;SDS011;3918;42.564;23.164;2022-09-12T06:00:11;5.05;;;4.65;;
7747;SDS011;3918;42.564;23.164;2022-09-12T06:02:39;10.15;;;5.50;;
7747;SDS011;3918;42.564;23.164;2022-09-12T06:05:06;5.97;;;4.43;;
7747;SDS011;3918;42.564;23.164;2022-09-12T06:07:33;11.85;;;4.70;;
7747;SDS011;3918;42.564;23.164;2022-09-12T06:10:02;11.88;;;4.72;;
7747;SDS011;3918;42.564;23.164;2022-09-12T06:12:29;4.85;;;3.33;;
7747;SDS011;3918;42.564;23.164;2022-09-12T06:14:56;6.90;;;6.05;;
7747;SDS011;3918;42.564;23.164;2022-09-12T06:17:23;3.42;;;3.22;;
7747;SDS011;3918;42.564;23.164;2022-09-12T06:19:49;9.00;;;3.00;;
7747;SDS011;3918;42.564;23.164;2022-09-12T06:22:16;3.95;;;3.10;;
7747;SDS011;3918;42.564;23.164;2022-09-12T06:24:43;4.50;;;2.90;;
7747;SDS011;3918;42.564;23.164;2022-09-12T06:27:11;2.92;;;2.72;;
7747;SDS011;3918;42.564;23.164;2022-09-12T06:29:38;3.92;;;2.38;;
7747;SDS011;3918;42.564;23.164;2022-09-12T06:32:04;3.33;;;2.80;;
7747;SDS011;3918;42.564;23.164;2022-09-12T06:34:31;3.00;;;2.63;;
7747;SDS011;3918;42.564;23.164;2022-09-12T06:37:00;4.43;;;3.10;;
7747;SDS011;3918;42.564;23.164;2022-09-12T06:39:28;3.53;;;3.33;;
7747;SDS011;3918;42.564;23.164;2022-09-12T06:41:55;3.83;;;3.50;;
7747;SDS011;3918;42.564;23.164;2022-09-12T06:44:24;3.38;;;3.10;;
7747;SDS011;3918;42.564;23.164;2022-09-12T06:46:51;3.90;;;3.47;;
7747;SDS011;3918;42.564;23.164;2022-09-12T06:49:18;3.08;;;2.88;;
7747;SDS011;3918;42.564;23.164;2022-09-12T06:51:45;2.88;;;2.67;;
7747;SDS011;3918;42.564;23.164;2022-09-12T06:54:12;3.38;;;2.92;;
7747;SDS011;3918;42.564;23.164;2022-09-12T06:56:39;2.92;;;2.72;;
7747;SDS011;3918;42.564;23.164;2022-09-12T06:59:06;3.85;;;3.20;;
7747;SDS011;3918;42.564;23.164;2022-09-12T07:01:34;3.67;;;3.38;;
7747;SDS011;3918;42.564;23.164;2022-09-12T07:04:02;3.67;;;3.47;;
7747;SDS011;3918;42.564;23.164;2022-09-12T07:06:30;6.20;;;4.15;;
7747;SDS011;3918;42.564;23.164;2022-09-12T07:09:02;9.55;;;4.47;;
7747;SDS011;3918;42.564;23.164;2022-09-12T07:11:31;4.78;;;4.38;;
7747;SDS011;3918;42.564;23.164;2022-09-12T07:13:59;10.25;;;4.80;;
7747;SDS011;3918;42.564;23.164;2022-09-12T07:16:27;6.50;;;4.95;;
7747;SDS011;3918;42.564;23.164;2022-09-12T07:18:56;5.53;;;4.70;;
7747;SDS011;3918;42.564;23.164;2022-09-12T07:21:24;9.18;;;5.43;;
7747;SDS011;3918;42.564;23.164;2022-09-12T07:23:51;7.43;;;6.32;;
7747;SDS011;3918;42.564;23.164;2022-09-12T07:26:19;10.40;;;6.28;;
7747;SDS011;3918;42.564;23.164;2022-09-12T07:28:49;7.60;;;6.00;;
7747;SDS011;3918;42.564;23.164;2022-09-12T07:31:17;11.00;;;6.30;;
7747;SDS011;3918;42.564;23.164;2022-09-12T07:33:45;6.18;;;5.20;;
7747;SDS011;3918;42.564;23.164;2022-09-12T07:36:16;6.30;;;5.70;;
7747;SDS011;3918;42.564;23.164;2022-09-12T07:38:44;6.18;;;5.43;;
7747;SDS011;3918;42.564;23.164;2022-09-12T07:41:12;6.00;;;5.40;;
7747;SDS011;3918;42.564;23.164;2022-09-12T07:43:40;6.00;;;5.50;;
7747;SDS011;3918;42.564;23.164;2022-09-12T07:46:07;5.43;;;4.80;;
7747;SDS011;3918;42.564;23.164;2022-09-12T07:48:34;4.57;;;4.28;;
7747;SDS011;3918;42.564;23.164;2022-09-12T07:51:02;4.00;;;3.80;;
7747;SDS011;3918;42.564;23.164;2022-09-12T07:53:32;6.00;;;3.70;;
7747;SDS011;3918;42.564;23.164;2022-09-12T07:55:59;4.80;;;4.00;;
7747;SDS011;3918;42.564;23.164;2022-09-12T07:58:27;3.13;;;2.92;;
7747;SDS011;3918;42.564;23.164;2022-09-12T08:01:00;4.20;;;3.80;;
7747;SDS011;3918;42.564;23.164;2022-09-12T08:03:28;4.40;;;4.03;;
7747;SDS011;3918;42.564;23.164;2022-09-12T08:05:59;4.45;;;4.15;;
7747;SDS011;3918;42.564;23.164;2022-09-12T08:08:28;5.82;;;4.18;;
7747;SDS011;3918;42.564;23.164;2022-09-12T08:10:57;5.03;;;4.57;;
7747;SDS011;3918;42.564;23.164;2022-09-12T08:13:23;4.85;;;3.88;;
7747;SDS011;3918;42.564;23.164;2022-09-12T08:15:50;10.20;;;4.22;;
7747;SDS011;3918;42.564;23.164;2022-09-12T08:18:17;4.35;;;4.00;;
7747;SDS011;3918;42.564;23.164;2022-09-12T08:20:44;6.03;;;4.20;;
7747;SDS011;3918;42.564;23.164;2022-09-12T08:23:11;6.70;;;3.60;;
7747;SDS011;3918;42.564;23.164;2022-09-12T08:25:37;4.20;;;3.63;;
7747;SDS011;3918;42.564;23.164;2022-09-12T08:28:06;4.10;;;3.80;;
7747;SDS011;3918;42.564;23.164;2022-09-12T08:30:32;3.60;;;3.40;;
7747;SDS011;3918;42.564;23.164;2022-09-12T08:32:59;3.55;;;3.25;;
7747;SDS011;3918;42.564;23.164;2022-09-12T08:35:26;2.72;;;2.63;;
7747;SDS011;3918;42.564;23.164;2022-09-12T08:37:52;3.33;;;3.13;;
7747;SDS011;3918;42.564;23.164;2022-09-12T08:40:19;3.95;;;3.65;;
7747;SDS011;3918;42.564;23.164;2022-09-12T08:42:49;3.67;;;3.40;;
7747;SDS011;3918;42.564;23.164;2022-09-12T08:45:26;4.90;;;3.88;;
7747;SDS011;3918;42.564;23.164;2022-09-12T08:47:59;3.53;;;3.22;;
7747;SDS011;3918;42.564;23.164;2022-09-12T08:50:29;7.90;;;3.47;;
7747;SDS011;3918;42.564;23.164;2022-09-12T08:52:58;3.30;;;3.10;;
7747;SDS011;3918;42.564;23.164;2022-09-12T08:55:31;4.85;;;3.40;;
7747;SDS011;3918;42.564;23.164;2022-09-12T08:58:00;3.90;;;3.60;;
7747;SDS011;3918;42.564;23.164;2022-09-12T09:00:39;4.72;;;3.63;;
7747;SDS011;3918;42.564;23.164;2022-09-12T09:03:26;3.35;;;3.10;;
7747;SDS011;3918;42.564;23.164;2022-09-12T09:06:02;4.70;;;2.80;;
7747;SDS011;3918;42.564;23.164;2022-09-12T09:08:39;3.35;;;3.15;;
7747;SDS011;3918;42.564;23.164;2022-09-12T09:11:16;4.55;;;3.92;;
7747;SDS011;3918;42.564;23.164;2022-09-12T09:13:54;4.68;;;3.10;;
7747;SDS011;3918;42.564;23.164;2022-09-12T09:16:49;2.80;;;2.70;;
7747;SDS011;3918;42.564;23.164;2022-09-12T09:19:19;2.63;;;2.50;;
7747;SDS011;3918;42.564;23.164;2022-09-12T09:21:51;2.90;;;2.80;;
7747;SDS011;3918;42.564;23.164;2022-09-12T09:24:23;3.17;;;2.97;;
7747;SDS011;3918;42.564;23.164;2022-09-12T09:26:59;3.60;;;3.30;;
7747;SDS011;3918;42.564;23.164;2022-09-12T09:29:32;3.00;;;2.80;;
7747;SDS011;3918;42.564;23.164;2022-09-12T09:32:09;2.25;;;2.15;;
7747;SDS011;3918;42.564;23.164;2022-09-12T09:34:42;3.33;;;3.13;;
7747;SDS011;3918;42.564;23.164;2022-09-12T09:37:12;3.90;;;3.30;;
7747;SDS011;3918;42.564;23.164;2022-09-12T09:39:48;3.28;;;3.05;;
7747;SDS011;3918;42.564;23.164;2022-09-12T09:42:25;5.25;;;3.60;;
7747;SDS011;3918;42.564;23.164;2022-09-12T09:45:01;3.85;;;3.47;;
7747;SDS011;3918;42.564;23.164;2022-09-12T09:47:38;4.50;;;4.20;;
7747;SDS011;3918;42.564;23.164;2022-09-12T09:50:05;4.18;;;3.90;;
7747;SDS011;3918;42.564;23.164;2022-09-12T09:52:32;4.97;;;4.13;;
7747;SDS011;3918;42.564;23.164;2022-09-12T09:55:00;4.30;;;3.38;;
7747;SDS011;3918;42.564;23.164;2022-09-12T09:57:38;3.88;;;3.63;;
7747;SDS011;3918;42.564;23.164;2022-09-12T10:00:19;3.30;;;3.10;;
7747;SDS011;3918;42.564;23.164;2022-09-12T10:03:03;3.55;;;3.28;;
7747;SDS011;3918;42.564;23.164;2022-09-12T10:05:48;4.07;;;3.83;;
7747;SDS011;3918;42.564;23.164;2022-09-12T10:08:18;4.05;;;3.65;;
7747;SDS011;3918;42.564;23.164;2022-09-12T10:10:57;4.28;;;3.63;;
7747;SDS011;3918;42.564;23.164;2022-09-12T10:13:28;4.65;;;4.25;;
7747;SDS011;3918;42.564;23.164;2022-09-12T10:15:59;5.00;;;4.50;;
7747;SDS011;3918;42.564;23.164;2022-09-12T10:18:38;4.55;;;4.00;;
7747;SDS011;3918;42.564;23.164;2022-09-12T10:21:26;5.10;;;4.68;;
7747;SDS011;3918;42.564;23.164;2022-09-12T10:24:03;4.53;;;4.20;;
7747;SDS011;3918;42.564;23.164;2022-09-12T10:26:41;4.10;;;3.90;;
7747;SDS011;3918;42.564;23.164;2022-09-12T10:29:14;4.40;;;4.07;;
7747;SDS011;3918;42.564;23.164;2022-09-12T10:31:44;4.20;;;3.95;;
7747;SDS011;3918;42.564;23.164;2022-09-12T10:34:20;5.40;;;4.75;;
7747;SDS011;3918;42.564;23.164;2022-09-12T10:36:52;4.43;;;4.03;;
7747;SDS011;3918;42.564;23.164;2022-09-12T10:39:29;6.82;;;5.03;;
7747;SDS011;3918;42.564;23.164;2022-09-12T10:41:58;5.00;;;4.63;;
7747;SDS011;3918;42.564;23.164;2022-09-12T10:44:26;5.45;;;4.47;;
7747;SDS011;3918;42.564;23.164;2022-09-12T10:46:54;7.22;;;5.38;;
7747;SDS011;3918;42.564;23.164;2022-09-12T10:49:25;4.80;;;4.40;;
7747;SDS011;3918;42.564;23.164;2022-09-12T10:51:54;10.65;;;5.18;;
7747;SDS011;3918;42.564;23.164;2022-09-12T10:54:24;5.13;;;4.65;;
7747;SDS011;3918;42.564;23.164;2022-09-12T10:56:58;4.97;;;4.40;;
7747;SDS011;3918;42.564;23.164;2022-09-12T10:59:44;4.65;;;4.22;;
7747;SDS011;3918;42.564;23.164;2022-09-12T11:02:26;4.90;;;4.50;;
7747;SDS011;3918;42.564;23.164;2022-09-12T11:04:58;4.30;;;4.00;;
7747;SDS011;3918;42.564;23.164;2022-09-12T11:07:40;5.20;;;4.28;;
7747;SDS011;3918;42.564;23.164;2022-09-12T11:10:20;4.78;;;4.38;;
7747;SDS011;3918;42.564;23.164;2022-09-12T11:12:56;4.70;;;4.40;;
7747;SDS011;3918;42.564;23.164;2022-09-12T11:15:34;4.57;;;4.28;;
7747;SDS011;3918;42.564;23.164;2022-09-12T11:18:13;69.70;;;9.95;;
7747;SDS011;3918;42.564;23.164;2022-09-12T11:20:54;5.20;;;4.70;;
7747;SDS011;3918;42.564;23.164;2022-09-12T11:23:52;4.25;;;3.80;;
7747;SDS011;3918;42.564;23.164;2022-09-12T11:26:40;4.65;;;4.18;;
7747;SDS011;3918;42.564;23.164;2022-09-12T11:29:16;6.22;;;5.15;;
7747;SDS011;3918;42.564;23.164;2022-09-12T11:34:58;4.88;;;4.47;;
7747;SDS011;3918;42.564;23.164;2022-09-12T11:37:43;5.80;;;4.30;;
7747;SDS011;3918;42.564;23.164;2022-09-12T11:40:26;5.22;;;4.72;;
7747;SDS011;3918;42.564;23.164;2022-09-12T11:42:58;7.65;;;4.82;;
7747;SDS011;3918;42.564;23.164;2022-09-12T11:45:29;5.72;;;5.18;;
7747;SDS011;3918;42.564;23.164;2022-09-12T11:48:03;7.82;;;5.80;;
7747;SDS011;3918;42.564;23.164;2022-09-12T11:50:35;5.75;;;5.25;;
7747;SDS011;3918;42.564;23.164;2022-09-12T11:53:06;6.13;;;5.63;;
7747;SDS011;3918;42.564;23.164;2022-09-12T11:55:43;5.07;;;4.53;;
7747;SDS011;3918;42.564;23.164;2022-09-12T11:58:17;5.20;;;4.80;;
7747;SDS011;3918;42.564;23.164;2022-09-12T12:00:51;4.45;;;4.15;;
7747;SDS011;3918;42.564;23.164;2022-09-12T12:03:22;14.98;;;4.32;;
7747;SDS011;3918;42.564;23.164;2022-09-12T12:05:56;8.82;;;3.80;;
7747;SDS011;3918;42.564;23.164;2022-09-12T12:08:30;6.97;;;3.50;;
7747;SDS011;3918;42.564;23.164;2022-09-12T12:11:03;4.43;;;3.67;;
7747;SDS011;3918;42.564;23.164;2022-09-12T12:13:32;4.10;;;3.80;;
7747;SDS011;3918;42.564;23.164;2022-09-12T12:16:03;11.27;;;4.50;;
7747;SDS011;3918;42.564;23.164;2022-09-12T12:18:32;4.65;;;4.13;;
7747;SDS011;3918;42.564;23.164;2022-09-12T12:21:18;4.25;;;3.88;;
7747;SDS011;3918;42.564;23.164;2022-09-12T12:24:10;2.72;;;2.53;;
7747;SDS011;3918;42.564;23.164;2022-09-12T12:26:55;5.20;;;3.63;;
7747;SDS011;3918;42.564;23.164;2022-09-12T12:29:40;3.60;;;3.17;;
7747;SDS011;3918;42.564;23.164;2022-09-12T12:32:18;3.67;;;3.47;;
7747;SDS011;3918;42.564;23.164;2022-09-12T12:34:48;2.97;;;2.78;;
7747;SDS011;3918;42.564;23.164;2022-09-12T12:40:22;3.42;;;3.22;;
7747;SDS011;3918;42.564;23.164;2022-09-12T12:43:01;2.57;;;2.47;;
7747;SDS011;3918;42.564;23.164;2022-09-12T12:51:38;2.47;;;2.25;;
7747;SDS011;3918;42.564;23.164;2022-09-12T12:57:21;2.53;;;2.10;;
7747;SDS011;3918;42.564;23.164;2022-09-12T12:59:59;2.35;;;2.13;;
7747;SDS011;3918;42.564;23.164;2022-09-12T13:02:29;2.55;;;2.40;;
7747;SDS011;3918;42.564;23.164;2022-09-12T13:04:59;3.22;;;2.20;;
7747;SDS011;3918;42.564;23.164;2022-09-12T13:07:30;2.25;;;2.15;;
7747;SDS011;3918;42.564;23.164;2022-09-12T13:10:01;2.63;;;2.53;;
7747;SDS011;3918;42.564;23.164;2022-09-12T13:12:32;1.90;;;1.80;;
7747;SDS011;3918;42.564;23.164;2022-09-12T13:15:01;3.40;;;3.10;;
7747;SDS011;3918;42.564;23.164;2022-09-12T13:17:34;5.45;;;2.75;;
7747;SDS011;3918;42.564;23.164;2022-09-12T13:20:16;2.65;;;2.45;;
7747;SDS011;3918;42.564;23.164;2022-09-12T13:22:46;2.90;;;2.60;;
7747;SDS011;3918;42.564;23.164;2022-09-12T13:25:19;3.05;;;2.85;;
7747;SDS011;3918;42.564;23.164;2022-09-12T13:28:00;4.13;;;2.88;;
7747;SDS011;3918;42.564;23.164;2022-09-12T13:30:30;2.63;;;2.42;;
7747;SDS011;3918;42.564;23.164;2022-09-12T13:33:03;2.53;;;2.40;;
7747;SDS011;3918;42.564;23.164;2022-09-12T13:35:40;2.92;;;2.72;;
7747;SDS011;3918;42.564;23.164;2022-09-12T13:38:15;3.38;;;3.00;;
7747;SDS011;3918;42.564;23.164;2022-09-12T13:40:57;3.15;;;2.90;;
7747;SDS011;3918;42.564;23.164;2022-09-12T13:43:41;3.60;;;3.20;;
7747;SDS011;3918;42.564;23.164;2022-09-12T13:46:12;4.55;;;2.83;;
7747;SDS011;3918;42.564;23.164;2022-09-12T13:48:43;4.38;;;2.80;;
7747;SDS011;3918;42.564;23.164;2022-09-12T13:51:17;3.22;;;3.03;;
7747;SDS011;3918;42.564;23.164;2022-09-12T13:53:49;3.20;;;3.00;;
7747;SDS011;3918;42.564;23.164;2022-09-12T13:56:20;4.13;;;3.80;;
7747;SDS011;3918;42.564;23.164;2022-09-12T13:58:52;3.58;;;3.35;;
7747;SDS011;3918;42.564;23.164;2022-09-12T14:01:21;4.57;;;4.18;;
7747;SDS011;3918;42.564;23.164;2022-09-12T14:03:49;7.95;;;4.07;;
7747;SDS011;3918;42.564;23.164;2022-09-12T14:06:36;7.30;;;4.05;;
7747;SDS011;3918;42.564;23.164;2022-09-12T14:09:12;3.90;;;3.60;;
7747;SDS011;3918;42.564;23.164;2022-09-12T14:11:40;5.35;;;3.83;;
7747;SDS011;3918;42.564;23.164;2022-09-12T14:14:16;4.15;;;3.75;;
7747;SDS011;3918;42.564;23.164;2022-09-12T14:16:46;2.70;;;2.50;;
7747;SDS011;3918;42.564;23.164;2022-09-12T14:19:13;3.88;;;3.38;;
7747;SDS011;3918;42.564;23.164;2022-09-12T14:21:41;3.95;;;3.63;;
7747;SDS011;3918;42.564;23.164;2022-09-12T14:24:08;4.97;;;4.57;;
7747;SDS011;3918;42.564;23.164;2022-09-12T14:26:39;3.50;;;3.30;;
7747;SDS011;3918;42.564;23.164;2022-09-12T14:29:11;3.20;;;3.00;;
7747;SDS011;3918;42.564;23.164;2022-09-12T14:31:42;3.38;;;3.17;;
7747;SDS011;3918;42.564;23.164;2022-09-12T14:34:11;12.30;;;4.00;;
7747;SDS011;3918;42.564;23.164;2022-09-12T14:36:40;6.18;;;3.50;;
7747;SDS011;3918;42.564;23.164;2022-09-12T14:39:23;13.68;;;4.03;;
7747;SDS011;3918;42.564;23.164;2022-09-12T14:42:00;3.00;;;2.80;;
7747;SDS011;3918;42.564;23.164;2022-09-12T14:44:31;3.63;;;3.42;;
7747;SDS011;3918;42.564;23.164;2022-09-12T14:47:09;4.43;;;3.47;;
7747;SDS011;3918;42.564;23.164;2022-09-12T14:49:38;3.70;;;3.40;;
7747;SDS011;3918;42.564;23.164;2022-09-12T14:52:06;3.10;;;2.90;;
7747;SDS011;3918;42.564;23.164;2022-09-12T14:54:54;3.55;;;2.80;;
7747;SDS011;3918;42.564;23.164;2022-09-12T14:57:33;3.10;;;2.90;;
7747;SDS011;3918;42.564;23.164;2022-09-12T15:00:14;3.03;;;2.83;;
7747;SDS011;3918;42.564;23.164;2022-09-12T15:02:48;3.70;;;3.40;;
7747;SDS011;3918;42.564;23.164;2022-09-12T15:05:21;6.07;;;3.25;;
7747;SDS011;3918;42.564;23.164;2022-09-12T15:07:51;4.13;;;3.63;;
7747;SDS011;3918;42.564;23.164;2022-09-12T15:10:20;3.90;;;3.60;;
7747;SDS011;3918;42.564;23.164;2022-09-12T15:13:02;7.20;;;3.67;;
7747;SDS011;3918;42.564;23.164;2022-09-12T15:15:42;3.60;;;3.40;;
7747;SDS011;3918;42.564;23.164;2022-09-12T15:18:10;5.78;;;3.72;;
7747;SDS011;3918;42.564;23.164;2022-09-12T15:20:38;3.92;;;3.70;;
7747;SDS011;3918;42.564;23.164;2022-09-12T15:23:10;4.30;;;3.90;;
7747;SDS011;3918;42.564;23.164;2022-09-12T15:25:41;4.30;;;3.90;;
7747;SDS011;3918;42.564;23.164;2022-09-12T15:28:12;4.80;;;4.40;;
7747;SDS011;3918;42.564;23.164;2022-09-12T15:30:44;3.92;;;3.72;;
7747;SDS011;3918;42.564;23.164;2022-09-12T15:33:12;8.73;;;4.85;;
7747;SDS011;3918;42.564;23.164;2022-09-12T15:35:38;8.70;;;5.03;;
7747;SDS011;3918;42.564;23.164;2022-09-12T15:38:05;5.38;;;4.97;;
7747;SDS011;3918;42.564;23.164;2022-09-12T15:40:32;5.00;;;4.60;;
7747;SDS011;3918;42.564;23.164;2022-09-12T15:42:59;4.57;;;4.28;;
7747;SDS011;3918;42.564;23.164;2022-09-12T15:45:26;6.93;;;4.03;;
7747;SDS011;3918;42.564;23.164;2022-09-12T15:47:57;6.57;;;4.43;;
7747;SDS011;3918;42.564;23.164;2022-09-12T15:50:25;4.80;;;4.00;;
7747;SDS011;3918;42.564;23.164;2022-09-12T15:52:52;4.55;;;4.18;;
7747;SDS011;3918;42.564;23.164;2022-09-12T15:55:20;10.77;;;4.68;;
7747;SDS011;3918;42.564;23.164;2022-09-12T15:57:48;4.70;;;4.30;;
7747;SDS011;3918;42.564;23.164;2022-09-12T16:00:15;7.60;;;4.60;;
7747;SDS011;3918;42.564;23.164;2022-09-12T16:02:43;5.35;;;4.75;;
7747;SDS011;3918;42.564;23.164;2022-09-12T16:05:15;10.38;;;8.07;;
7747;SDS011;3918;42.564;23.164;2022-09-12T16:07:43;4.93;;;4.45;;
7747;SDS011;3918;42.564;23.164;2022-09-12T16:10:12;5.72;;;5.22;;
7747;SDS011;3918;42.564;23.164;2022-09-12T16:12:40;5.90;;;4.97;;
7747;SDS011;3918;42.564;23.164;2022-09-12T16:15:10;7.55;;;5.40;;
7747;SDS011;3918;42.564;23.164;2022-09-12T16:17:38;6.40;;;5.80;;
7747;SDS011;3918;42.564;23.164;2022-09-12T16:20:06;9.27;;;6.88;;
7747;SDS011;3918;42.564;23.164;2022-09-12T16:22:35;6.30;;;5.75;;
7747;SDS011;3918;42.564;23.164;2022-09-12T16:25:02;6.03;;;5.38;;
7747;SDS011;3918;42.564;23.164;2022-09-12T16:27:30;6.68;;;5.13;;
7747;SDS011;3918;42.564;23.164;2022-09-12T16:29:57;5.43;;;5.00;;
7747;SDS011;3918;42.564;23.164;2022-09-12T16:32:24;4.88;;;4.47;;
7747;SDS011;3918;42.564;23.164;2022-09-12T16:34:50;6.63;;;4.70;;
7747;SDS011;3918;42.564;23.164;2022-09-12T16:37:17;4.70;;;4.40;;
7747;SDS011;3918;42.564;23.164;2022-09-12T16:39:46;5.10;;;4.70;;
7747;SDS011;3918;42.564;23.164;2022-09-12T16:42:14;4.40;;;4.03;;
7747;SDS011;3918;42.564;23.164;2022-09-12T16:44:42;4.30;;;4.00;;
7747;SDS011;3918;42.564;23.164;2022-09-12T16:47:09;8.18;;;4.65;;
7747;SDS011;3918;42.564;23.164;2022-09-12T16:49:35;5.25;;;4.75;;
7747;SDS011;3918;42.564;23.164;2022-09-12T16:52:02;5.60;;;4.78;;
7747;SDS011;3918;42.564;23.164;2022-09-12T16:54:29;4.35;;;4.05;;
7747;SDS011;3918;42.564;23.164;2022-09-12T16:56:57;4.20;;;3.90;;
7747;SDS011;3918;42.564;23.164;2022-09-12T16:59:24;4.75;;;4.35;;
7747;SDS011;3918;42.564;23.164;2022-09-12T17:01:51;4.53;;;4.22;;
7747;SDS011;3918;42.564;23.164;2022-09-12T17:04:18;5.40;;;4.20;;
7747;SDS011;3918;42.564;23.164;2022-09-12T17:06:45;4.65;;;4.25;;
7747;SDS011;3918;42.564;23.164;2022-09-12T17:09:11;4.32;;;4.03;;
7747;SDS011;3918;42.564;23.164;2022-09-12T17:11:43;4.15;;;3.85;;
7747;SDS011;3918;42.564;23.164;2022-09-12T17:14:12;6.40;;;4.30;;
7747;SDS011;3918;42.564;23.164;2022-09-12T17:16:40;7.30;;;3.90;;
7747;SDS011;3918;42.564;23.164;2022-09-12T17:19:09;4.07;;;3.67;;
7747;SDS011;3918;42.564;23.164;2022-09-12T17:21:38;3.85;;;3.53;;
7747;SDS011;3918;42.564;23.164;2022-09-12T17:24:05;11.40;;;10.27;;
7747;SDS011;3918;42.564;23.164;2022-09-12T17:26:32;4.68;;;4.28;;
7747;SDS011;3918;42.564;23.164;2022-09-12T17:28:59;4.40;;;4.10;;
7747;SDS011;3918;42.564;23.164;2022-09-12T17:31:27;5.10;;;4.70;;
7747;SDS011;3918;42.564;23.164;2022-09-12T17:33:54;6.43;;;5.03;;
7747;SDS011;3918;42.564;23.164;2022-09-12T17:36:22;6.13;;;5.50;;
7747;SDS011;3918;42.564;23.164;2022-09-12T17:38:49;5.45;;;5.05;;
7747;SDS011;3918;42.564;23.164;2022-09-12T17:41:19;5.63;;;5.13;;
7747;SDS011;3918;42.564;23.164;2022-09-12T17:43:47;10.90;;;5.45;;
7747;SDS011;3918;42.564;23.164;2022-09-12T17:46:16;6.13;;;5.32;;
7747;SDS011;3918;42.564;23.164;2022-09-12T17:48:48;7.75;;;5.13;;
7747;SDS011;3918;42.564;23.164;2022-09-12T17:51:16;5.63;;;5.00;;
7747;SDS011;3918;42.564;23.164;2022-09-12T17:53:43;5.30;;;4.90;;
7747;SDS011;3918;42.564;23.164;2022-09-12T17:56:10;5.28;;;4.88;;
7747;SDS011;3918;42.564;23.164;2022-09-12T17:58:37;4.68;;;4.30;;
7747;SDS011;3918;42.564;23.164;2022-09-12T18:01:05;4.47;;;4.07;;
7747;SDS011;3918;42.564;23.164;2022-09-12T18:03:53;4.72;;;4.32;;
7747;SDS011;3918;42.564;23.164;2022-09-12T18:06:20;4.80;;;4.40;;
7747;SDS011;3918;42.564;23.164;2022-09-12T18:08:48;4.60;;;4.30;;
7747;SDS011;3918;42.564;23.164;2022-09-12T18:11:14;5.10;;;4.70;;
7747;SDS011;3918;42.564;23.164;2022-09-12T18:13:41;4.25;;;3.95;;
7747;SDS011;3918;42.564;23.164;2022-09-12T18:16:09;5.45;;;4.72;;
7747;SDS011;3918;42.564;23.164;2022-09-12T18:18:36;5.50;;;5.10;;
7747;SDS011;3918;42.564;23.164;2022-09-12T18:21:06;5.05;;;4.57;;
7747;SDS011;3918;42.564;23.164;2022-09-12T18:23:33;5.75;;;5.25;;
7747;SDS011;3918;42.564;23.164;2022-09-12T18:26:01;9.43;;;4.80;;
7747;SDS011;3918;42.564;23.164;2022-09-12T18:28:30;5.53;;;5.00;;
7747;SDS011;3918;42.564;23.164;2022-09-12T18:30:57;5.88;;;5.38;;
7747;SDS011;3918;42.564;23.164;2022-09-12T18:33:24;6.05;;;5.45;;
7747;SDS011;3918;42.564;23.164;2022-09-12T18:35:51;5.65;;;5.25;;
7747;SDS011;3918;42.564;23.164;2022-09-12T18:38:19;6.63;;;6.03;;
7747;SDS011;3918;42.564;23.164;2022-09-12T18:40:46;5.65;;;5.15;;
7747;SDS011;3918;42.564;23.164;2022-09-12T18:43:13;6.47;;;5.10;;
7747;SDS011;3918;42.564;23.164;2022-09-12T18:45:40;5.57;;;5.15;;
7747;SDS011;3918;42.564;23.164;2022-09-12T18:48:06;6.03;;;5.53;;
7747;SDS011;3918;42.564;23.164;2022-09-12T18:50:33;5.55;;;5.10;;
7747;SDS011;3918;42.564;23.164;2022-09-12T18:53:00;5.32;;;4.93;;
7747;SDS011;3918;42.564;23.164;2022-09-12T18:55:28;5.70;;;5.25;;
7747;SDS011;3918;42.564;23.164;2022-09-12T18:57:56;5.80;;;4.72;;
7747;SDS011;3918;42.564;23.164;2022-09-12T19:00:22;4.95;;;4.55;;
